createdAt,value
2023-01-29T00:02:00.270Z,-1.40
2023-01-29T00:04:29.501Z,-1.50
2023-01-29T00:06:57.382Z,-1.50
2023-01-29T00:09:25.240Z,-1.60
2023-01-29T00:11:53.093Z,-1.60
2023-01-29T00:14:21.299Z,-1.60
2023-01-29T00:16:49.306Z,-1.60
2023-01-29T00:19:17.513Z,-1.60
2023-01-29T00:21:47.057Z,-1.50
2023-01-29T00:24:15.122Z,-1.50
2023-01-29T00:26:43.243Z,-1.50
2023-01-29T00:29:11.116Z,-1.60
2023-01-29T00:31:39.187Z,-1.60
2023-01-29T00:34:07.104Z,-1.60
2023-01-29T00:36:35.029Z,-1.70
2023-01-29T00:39:10.796Z,-1.70
2023-01-29T00:41:57.190Z,-1.70
2023-01-29T00:44:42.475Z,-1.70
2023-01-29T00:47:30.743Z,-1.70
2023-01-29T00:49:58.998Z,-1.80
2023-01-29T00:52:27.686Z,-1.80
2023-01-29T00:54:58.468Z,-1.80
2023-01-29T00:57:27.983Z,-1.80
2023-01-29T00:59:56.020Z,-1.80
2023-01-29T01:02:42.108Z,-1.80
2023-01-29T01:05:17.840Z,-1.80
2023-01-29T01:07:46.816Z,-1.80
2023-01-29T01:10:24.346Z,-1.80
2023-01-29T01:12:55.828Z,-1.80
2023-01-29T01:15:24.760Z,-1.80
2023-01-29T01:17:56.634Z,-1.80
2023-01-29T01:20:25.314Z,-1.80
2023-01-29T01:22:55.273Z,-1.80
2023-01-29T01:25:25.648Z,-1.80
2023-01-29T01:27:54.325Z,-1.90
2023-01-29T01:30:23.505Z,-1.90
2023-01-29T01:32:51.447Z,-2.00
2023-01-29T01:35:19.634Z,-2.00
2023-01-29T01:37:47.536Z,-2.00
2023-01-29T01:40:18.985Z,-2.00
2023-01-29T01:42:51.286Z,-2.00
2023-01-29T01:45:22.830Z,-2.00
2023-01-29T01:47:55.444Z,-2.00
2023-01-29T01:50:27.822Z,-2.00
2023-01-29T01:53:00.856Z,-2.00
2023-01-29T01:55:31.249Z,-2.00
2023-01-29T01:58:05.343Z,-1.90
2023-01-29T02:00:33.248Z,-1.90
2023-01-29T02:03:19.847Z,-2.00
2023-01-29T02:06:06.247Z,-2.00
2023-01-29T02:08:59.916Z,-2.00
2023-01-29T02:11:27.907Z,-2.10
2023-01-29T02:13:57.951Z,-2.10
2023-01-29T02:16:25.824Z,-2.10
2023-01-29T02:18:54.083Z,-2.10
2023-01-29T02:21:44.710Z,-2.20
2023-01-29T02:24:39.887Z,-2.20
2023-01-29T02:27:11.864Z,-2.20
2023-01-29T02:29:54.271Z,-2.30
2023-01-29T02:32:30.321Z,-2.40
2023-01-29T02:35:29.843Z,-2.40
2023-01-29T02:38:07.621Z,-2.30
2023-01-29T02:40:43.984Z,-2.30
2023-01-29T02:43:24.426Z,-2.30
2023-01-29T02:46:01.570Z,-2.30
2023-01-29T02:48:38.713Z,-2.20
2023-01-29T02:51:12.040Z,-2.30
2023-01-29T02:53:46.317Z,-2.20
2023-01-29T02:56:17.784Z,-2.20
2023-01-29T02:58:48.824Z,-2.20
2023-01-29T03:01:21.926Z,-2.20
2023-01-29T03:03:54.598Z,-2.20
2023-01-29T03:06:28.263Z,-2.20
2023-01-29T03:09:00.673Z,-2.10
2023-01-29T03:11:33.793Z,-2.10
2023-01-29T03:14:07.146Z,-2.10
2023-01-29T03:16:41.087Z,-2.00
2023-01-29T03:19:13.561Z,-2.00
2023-01-29T03:21:55.189Z,-2.00
2023-01-29T03:24:49.510Z,-2.00
2023-01-29T03:27:39.248Z,-2.00
2023-01-29T03:30:28.942Z,-2.00
2023-01-29T03:33:03.697Z,-2.00
2023-01-29T03:35:36.796Z,-2.10
2023-01-29T03:38:07.367Z,-2.10
2023-01-29T03:40:40.513Z,-2.00
2023-01-29T03:43:13.587Z,-2.10
2023-01-29T03:45:52.408Z,-2.10
2023-01-29T03:48:32.430Z,-2.00
2023-01-29T03:51:09.031Z,-2.00
2023-01-29T03:53:44.951Z,-2.00
2023-01-29T03:56:22.093Z,-2.00
2023-01-29T03:58:56.264Z,-2.00
2023-01-29T04:01:29.011Z,-2.10
2023-01-29T04:04:04.384Z,-2.10
2023-01-29T04:06:36.415Z,-2.10
2023-01-29T04:09:07.352Z,-2.10
2023-01-29T04:11:39.395Z,-2.20
2023-01-29T04:14:08.245Z,-2.20
2023-01-29T04:16:39.273Z,-2.20
2023-01-29T04:19:09.232Z,-2.20
2023-01-29T04:21:37.583Z,-2.30
2023-01-29T04:24:07.382Z,-2.30
2023-01-29T04:26:54.496Z,-2.30
2023-01-29T04:29:34.175Z,-2.30
2023-01-29T04:32:12.246Z,-2.40
2023-01-29T04:34:52.455Z,-2.40
2023-01-29T04:37:30.394Z,-2.50
2023-01-29T04:40:05.112Z,-2.50
2023-01-29T04:42:39.529Z,-2.50
2023-01-29T04:45:19.078Z,-2.60
2023-01-29T04:47:55.027Z,-2.60
2023-01-29T04:50:30.181Z,-2.70
2023-01-29T04:53:02.999Z,-2.70
2023-01-29T04:55:37.013Z,-2.70
2023-01-29T04:58:10.250Z,-2.70
2023-01-29T05:00:42.832Z,-2.70
2023-01-29T05:03:13.208Z,-2.70
2023-01-29T05:05:45.182Z,-2.70
2023-01-29T05:08:15.271Z,-2.70
2023-01-29T05:10:43.713Z,-2.80
2023-01-29T05:13:15.309Z,-2.80
2023-01-29T05:15:48.056Z,-2.80
2023-01-29T05:18:15.948Z,-2.80
2023-01-29T05:20:46.076Z,-2.70
2023-01-29T05:23:18.296Z,-2.70
2023-01-29T05:25:47.382Z,-2.60
2023-01-29T05:28:16.603Z,-2.60
2023-01-29T05:30:46.081Z,-2.60
2023-01-29T05:33:16.317Z,-2.60
2023-01-29T05:35:46.311Z,-2.60
2023-01-29T05:38:15.060Z,-2.60
2023-01-29T05:40:43.412Z,-2.60
2023-01-29T05:43:16.940Z,-2.60
2023-01-29T05:45:45.014Z,-2.60
2023-01-29T05:48:12.849Z,-2.70
2023-01-29T05:50:40.647Z,-2.60
2023-01-29T05:53:10.679Z,-2.70
2023-01-29T05:55:38.557Z,-2.60
2023-01-29T05:58:06.590Z,-2.60
2023-01-29T06:00:34.418Z,-2.60
2023-01-29T06:03:02.348Z,-2.60
2023-01-29T06:05:30.251Z,-2.50
2023-01-29T06:07:58.112Z,-2.50
2023-01-29T06:10:27.271Z,-2.50
2023-01-29T06:12:55.087Z,-2.40
2023-01-29T06:15:22.914Z,-2.40
2023-01-29T06:17:50.801Z,-2.40
2023-01-29T06:20:19.198Z,-2.50
2023-01-29T06:22:47.226Z,-2.40
2023-01-29T06:25:15.112Z,-2.50
2023-01-29T06:27:44.406Z,-2.50
2023-01-29T06:30:13.333Z,-2.40
2023-01-29T06:32:41.230Z,-2.40
2023-01-29T06:35:10.780Z,-2.40
2023-01-29T06:37:39.733Z,-2.40
2023-01-29T06:40:08.951Z,-2.40
2023-01-29T06:42:36.863Z,-2.40
2023-01-29T06:45:06.819Z,-2.40
2023-01-29T06:47:34.653Z,-2.40
2023-01-29T06:50:02.457Z,-2.40
2023-01-29T06:52:30.416Z,-2.40
2023-01-29T06:54:58.499Z,-2.50
2023-01-29T06:57:26.479Z,-2.50
2023-01-29T06:59:54.303Z,-2.50
2023-01-29T07:02:24.300Z,-2.50
2023-01-29T07:04:52.139Z,-2.40
2023-01-29T07:07:19.985Z,-2.40
2023-01-29T07:09:47.819Z,-2.40
2023-01-29T07:12:15.632Z,-2.40
2023-01-29T07:14:43.446Z,-2.40
2023-01-29T07:17:11.275Z,-2.40
2023-01-29T07:19:40.515Z,-2.40
2023-01-29T07:22:08.342Z,-2.40
2023-01-29T07:24:36.402Z,-2.40
2023-01-29T07:27:04.407Z,-2.30
2023-01-29T07:29:32.194Z,-2.30
2023-01-29T07:32:00.296Z,-2.30
2023-01-29T07:34:28.215Z,-2.30
2023-01-29T07:36:57.805Z,-2.30
2023-01-29T07:39:25.745Z,-2.30
2023-01-29T07:41:53.579Z,-2.20
2023-01-29T07:44:21.372Z,-2.20
2023-01-29T07:46:49.272Z,-2.10
2023-01-29T07:49:17.530Z,-2.10
2023-01-29T07:51:45.353Z,-2.10
2023-01-29T07:54:14.578Z,-2.00
2023-01-29T07:56:42.441Z,-2.00
2023-01-29T07:59:10.256Z,-2.00
2023-01-29T08:01:38.128Z,-1.90
2023-01-29T08:04:06.076Z,-1.90
2023-01-29T08:06:33.914Z,-1.80
2023-01-29T08:09:02.210Z,-1.80
2023-01-29T08:11:31.424Z,-1.70
2023-01-29T08:13:59.451Z,-1.70
2023-01-29T08:16:27.389Z,-1.60
2023-01-29T08:18:55.249Z,-1.60
2023-01-29T08:21:23.693Z,-1.60
2023-01-29T08:23:51.493Z,-1.60
2023-01-29T08:26:19.434Z,-1.60
2023-01-29T08:28:48.590Z,-1.50
2023-01-29T08:31:17.191Z,-1.50
2023-01-29T08:33:45.040Z,-1.50
2023-01-29T08:36:12.937Z,-1.40
2023-01-29T08:38:41.111Z,-1.40
2023-01-29T08:41:09.309Z,-1.30
2023-01-29T08:43:38.502Z,-1.30
2023-01-29T08:46:09.135Z,-1.20
2023-01-29T08:48:37.034Z,-1.10
2023-01-29T08:51:05.904Z,-1.00
2023-01-29T08:53:33.745Z,-1.00
2023-01-29T08:56:01.741Z,-0.90
2023-01-29T08:58:29.579Z,-0.80
2023-01-29T09:00:57.654Z,-0.70
2023-01-29T09:03:26.871Z,-0.60
2023-01-29T09:05:54.820Z,-0.60
2023-01-29T09:08:22.640Z,-0.60
2023-01-29T09:10:50.472Z,-0.60
2023-01-29T09:13:18.271Z,-0.60
2023-01-29T09:15:46.096Z,-0.70
2023-01-29T09:18:14.095Z,-0.80
2023-01-29T09:20:45.023Z,-0.80
2023-01-29T09:23:13.200Z,-0.80
2023-01-29T09:25:43.443Z,-0.90
2023-01-29T09:28:11.278Z,-1.00
2023-01-29T09:30:39.174Z,-0.90
2023-01-29T09:33:08.312Z,-0.90
2023-01-29T09:35:36.519Z,-1.00
2023-01-29T09:38:05.775Z,-0.90
2023-01-29T09:40:38.194Z,-0.90
2023-01-29T09:43:11.515Z,-0.80
2023-01-29T09:45:50.397Z,-0.80
2023-01-29T09:48:19.059Z,-0.80
2023-01-29T09:50:52.320Z,-0.80
2023-01-29T09:53:26.204Z,-0.80
2023-01-29T09:55:59.895Z,-0.80
2023-01-29T09:58:32.947Z,-0.70
2023-01-29T10:01:13.252Z,-0.70
2023-01-29T10:04:14.548Z,-0.70
2023-01-29T10:06:55.824Z,-0.60
2023-01-29T10:09:50.457Z,-0.60
2023-01-29T10:12:34.097Z,-0.50
2023-01-29T10:15:15.293Z,-0.50
2023-01-29T10:17:57.943Z,-0.50
2023-01-29T10:20:53.984Z,-0.50
2023-01-29T10:23:25.167Z,-0.50
2023-01-29T10:25:55.281Z,-0.40
2023-01-29T10:28:30.243Z,-0.40
2023-01-29T10:31:03.266Z,-0.40
2023-01-29T10:33:49.604Z,-0.40
2023-01-29T10:36:29.666Z,-0.40
2023-01-29T10:38:57.606Z,-0.40
2023-01-29T10:41:40.178Z,-0.30
2023-01-29T10:44:18.322Z,-0.30
2023-01-29T10:46:58.647Z,-0.30
2023-01-29T10:49:39.031Z,-0.20
2023-01-29T10:52:27.246Z,-0.10
2023-01-29T10:55:05.522Z,0.00
2023-01-29T10:57:50.850Z,0.10
2023-01-29T11:00:23.008Z,0.10
2023-01-29T11:02:53.029Z,0.10
2023-01-29T11:05:26.602Z,0.10
2023-01-29T11:08:03.938Z,0.20
2023-01-29T11:10:38.217Z,0.20
2023-01-29T11:13:07.716Z,0.20
2023-01-29T11:15:35.830Z,0.30
2023-01-29T11:18:06.382Z,0.20
2023-01-29T11:20:35.034Z,0.20
2023-01-29T11:23:02.879Z,0.30
2023-01-29T11:25:32.673Z,0.40
2023-01-29T11:28:02.843Z,0.30
2023-01-29T11:30:33.394Z,0.40
2023-01-29T11:33:11.598Z,0.40
2023-01-29T11:35:39.548Z,0.60
2023-01-29T11:38:10.127Z,0.70
2023-01-29T11:40:40.699Z,0.70
2023-01-29T11:43:30.593Z,0.60
2023-01-29T11:46:03.095Z,0.70
2023-01-29T11:48:41.966Z,0.60
2023-01-29T11:51:13.004Z,0.70
2023-01-29T11:53:43.374Z,0.80
2023-01-29T11:56:22.439Z,0.90
2023-01-29T11:58:52.572Z,0.90
2023-01-29T12:01:34.094Z,1.10
2023-01-29T12:04:03.161Z,1.20
2023-01-29T12:06:36.825Z,1.40
2023-01-29T12:09:11.462Z,1.50
2023-01-29T12:11:39.319Z,1.60
2023-01-29T12:14:23.148Z,1.70
2023-01-29T12:16:57.606Z,1.90
2023-01-29T12:19:32.327Z,2.00
2023-01-29T12:22:05.377Z,2.20
2023-01-29T12:24:37.312Z,2.20
2023-01-29T12:27:13.253Z,2.00
2023-01-29T12:29:47.042Z,2.00
2023-01-29T12:32:28.847Z,2.10
2023-01-29T12:35:02.791Z,2.10
2023-01-29T12:37:41.490Z,2.00
2023-01-29T12:40:15.452Z,1.90
2023-01-29T12:42:46.988Z,1.90
2023-01-29T12:45:19.668Z,1.80
2023-01-29T12:47:53.041Z,1.60
2023-01-29T12:50:23.317Z,1.60
2023-01-29T12:52:54.753Z,1.60
2023-01-29T12:55:25.873Z,1.60
2023-01-29T12:57:58.075Z,1.60
2023-01-29T13:00:28.894Z,1.70
2023-01-29T13:03:02.646Z,1.80
2023-01-29T13:05:35.538Z,1.90
2023-01-29T13:08:08.376Z,2.10
2023-01-29T13:10:42.406Z,2.20
2023-01-29T13:13:17.461Z,2.30
2023-01-29T13:15:45.608Z,2.30
2023-01-29T13:18:33.090Z,2.40
2023-01-29T13:21:01.978Z,2.20
2023-01-29T13:23:35.532Z,2.30
2023-01-29T13:26:03.798Z,2.10
2023-01-29T13:28:32.144Z,2.20
2023-01-29T13:31:15.880Z,2.20
2023-01-29T13:33:54.260Z,2.00
2023-01-29T13:36:27.275Z,2.00
2023-01-29T13:39:01.273Z,2.00
2023-01-29T13:41:37.653Z,2.00
2023-01-29T13:44:07.983Z,1.90
2023-01-29T13:46:40.968Z,1.90
2023-01-29T13:49:26.572Z,2.00
2023-01-29T13:51:54.760Z,2.20
2023-01-29T13:54:26.408Z,2.30
2023-01-29T13:57:02.205Z,2.50
2023-01-29T13:59:53.820Z,2.50
2023-01-29T14:02:24.580Z,2.50
2023-01-29T14:05:16.395Z,2.50
2023-01-29T14:07:52.036Z,2.50
2023-01-29T14:10:21.593Z,2.40
2023-01-29T14:12:52.248Z,2.40
2023-01-29T14:15:32.107Z,2.30
2023-01-29T14:18:16.153Z,2.40
2023-01-29T14:20:56.792Z,2.40
2023-01-29T14:23:36.695Z,2.30
2023-01-29T14:26:06.885Z,2.30
2023-01-29T14:28:35.929Z,2.20
2023-01-29T14:31:04.917Z,2.10
2023-01-29T14:33:37.039Z,2.00
2023-01-29T14:36:12.141Z,2.00
2023-01-29T14:38:42.217Z,1.90
2023-01-29T14:41:19.192Z,1.80
2023-01-29T14:43:47.020Z,1.80
2023-01-29T14:46:45.448Z,1.80
2023-01-29T14:49:13.357Z,1.80
2023-01-29T14:51:45.787Z,1.80
2023-01-29T14:54:25.501Z,1.90
2023-01-29T14:57:00.301Z,2.00
2023-01-29T14:59:34.316Z,2.10
2023-01-29T15:02:06.364Z,2.00
2023-01-29T15:04:39.939Z,1.90
2023-01-29T15:07:20.781Z,1.80
2023-01-29T15:09:51.936Z,1.70
2023-01-29T15:12:26.880Z,1.80
2023-01-29T15:15:03.930Z,1.60
2023-01-29T15:17:35.276Z,1.60
2023-01-29T15:20:03.174Z,1.50
2023-01-29T15:22:32.913Z,1.50
2023-01-29T15:25:07.247Z,1.30
2023-01-29T15:27:35.886Z,1.20
2023-01-29T15:30:08.024Z,1.10
2023-01-29T15:32:38.145Z,1.00
2023-01-29T15:35:10.404Z,0.90
2023-01-29T15:37:40.830Z,0.90
2023-01-29T15:40:17.570Z,0.80
2023-01-29T15:42:48.461Z,0.70
2023-01-29T15:45:29.170Z,0.60
2023-01-29T15:48:02.772Z,0.60
2023-01-29T15:50:31.915Z,0.50
2023-01-29T15:53:04.105Z,0.50
2023-01-29T15:55:32.658Z,0.30
2023-01-29T15:58:01.492Z,0.30
2023-01-29T16:00:30.595Z,0.20
2023-01-29T16:03:00.633Z,0.10
2023-01-29T16:05:30.523Z,0.00
2023-01-29T16:08:00.593Z,-0.10
2023-01-29T16:10:31.824Z,-0.20
2023-01-29T16:13:00.592Z,-0.20
2023-01-29T16:15:34.778Z,-0.20
2023-01-29T16:18:05.909Z,-0.30
2023-01-29T16:20:41.345Z,-0.40
2023-01-29T16:23:18.411Z,-0.40
2023-01-29T16:25:49.276Z,-0.50
2023-01-29T16:28:18.041Z,-0.60
2023-01-29T16:30:46.174Z,-0.60
2023-01-29T16:33:17.065Z,-0.60
2023-01-29T16:35:52.330Z,-0.70
2023-01-29T16:38:32.618Z,-0.70
2023-01-29T16:41:16.185Z,-0.80
2023-01-29T16:43:51.735Z,-0.80
2023-01-29T16:46:25.196Z,-0.90
2023-01-29T16:48:53.723Z,-0.90
2023-01-29T16:51:29.417Z,-1.00
2023-01-29T16:53:59.676Z,-1.00
2023-01-29T16:56:31.712Z,-1.00
2023-01-29T16:59:00.408Z,-1.00
2023-01-29T17:01:30.633Z,-1.10
2023-01-29T17:04:07.603Z,-1.10
2023-01-29T17:06:36.127Z,-1.20
2023-01-29T17:09:04.937Z,-1.20
2023-01-29T17:11:37.191Z,-1.20
2023-01-29T17:14:06.898Z,-1.20
2023-01-29T17:16:37.464Z,-1.20
2023-01-29T17:19:18.351Z,-1.30
2023-01-29T17:21:46.566Z,-1.30
2023-01-29T17:24:15.500Z,-1.30
2023-01-29T17:26:45.382Z,-1.30
2023-01-29T17:29:16.408Z,-1.30
2023-01-29T17:31:44.595Z,-1.40
2023-01-29T17:34:14.629Z,-1.40
2023-01-29T17:36:42.737Z,-1.50
2023-01-29T17:39:17.470Z,-1.60
2023-01-29T17:41:50.618Z,-1.60
2023-01-29T17:44:18.604Z,-1.70
2023-01-29T17:46:47.415Z,-1.80
2023-01-29T17:49:23.478Z,-1.90
2023-01-29T17:51:51.647Z,-1.90
2023-01-29T17:54:19.655Z,-1.90
2023-01-29T17:56:49.563Z,-2.00
2023-01-29T17:59:18.989Z,-2.00
2023-01-29T18:01:47.472Z,-2.00
2023-01-29T18:04:16.156Z,-2.10
2023-01-29T18:06:45.562Z,-2.00
2023-01-29T18:09:14.715Z,-2.00
2023-01-29T18:11:42.659Z,-2.00
2023-01-29T18:14:14.138Z,-2.00
2023-01-29T18:16:44.010Z,-2.00
2023-01-29T18:19:15.539Z,-2.10
2023-01-29T18:21:43.383Z,-2.10
2023-01-29T18:24:11.230Z,-2.10
2023-01-29T18:26:39.333Z,-2.10
2023-01-29T18:29:07.340Z,-2.20
2023-01-29T18:31:36.568Z,-2.20
2023-01-29T18:34:04.878Z,-2.20
2023-01-29T18:36:32.746Z,-2.20
2023-01-29T18:39:00.606Z,-2.30
2023-01-29T18:41:28.409Z,-2.20
2023-01-29T18:43:56.255Z,-2.20
2023-01-29T18:46:24.727Z,-2.30
2023-01-29T18:48:54.959Z,-2.30
2023-01-29T18:51:22.794Z,-2.30
2023-01-29T18:53:51.733Z,-2.30
2023-01-29T18:56:20.785Z,-2.30
2023-01-29T18:58:52.126Z,-2.30
2023-01-29T19:01:23.912Z,-2.40
2023-01-29T19:03:53.878Z,-2.40
2023-01-29T19:06:21.719Z,-2.40
2023-01-29T19:08:51.576Z,-2.40
2023-01-29T19:11:19.480Z,-2.40
2023-01-29T19:13:47.970Z,-2.30
2023-01-29T19:16:15.814Z,-2.30
2023-01-29T19:18:43.749Z,-2.30
2023-01-29T19:21:15.140Z,-2.30
2023-01-29T19:23:44.794Z,-2.30
2023-01-29T19:26:13.490Z,-2.30
2023-01-29T19:28:41.825Z,-2.20
2023-01-29T19:31:10.845Z,-2.20
2023-01-29T19:33:39.920Z,-2.20
2023-01-29T19:36:08.812Z,-2.10
2023-01-29T19:38:38.855Z,-2.10
2023-01-29T19:41:07.066Z,-2.10
2023-01-29T19:43:35.266Z,-2.00
2023-01-29T19:46:03.279Z,-2.00
2023-01-29T19:48:31.383Z,-2.00
2023-01-29T19:51:02.273Z,-1.90
2023-01-29T19:53:31.053Z,-1.90
2023-01-29T19:56:02.030Z,-1.90
2023-01-29T19:58:30.738Z,-1.90
2023-01-29T20:01:00.117Z,-1.90
2023-01-29T20:03:28.939Z,-1.90
2023-01-29T20:05:57.066Z,-1.90
2023-01-29T20:08:25.034Z,-1.90
2023-01-29T20:10:52.924Z,-2.00
2023-01-29T20:13:22.125Z,-2.00
2023-01-29T20:15:51.636Z,-2.00
2023-01-29T20:18:20.056Z,-2.00
2023-01-29T20:20:49.269Z,-2.00
2023-01-29T20:23:35.223Z,-2.10
2023-01-29T20:26:05.931Z,-2.20
2023-01-29T20:28:35.728Z,-2.20
2023-01-29T20:31:04.151Z,-2.20
2023-01-29T20:33:33.521Z,-2.30
2023-01-29T20:36:02.689Z,-2.30
2023-01-29T20:38:31.763Z,-2.30
2023-01-29T20:41:04.225Z,-2.30
2023-01-29T20:43:32.197Z,-2.30
2023-01-29T20:46:01.969Z,-2.30
2023-01-29T20:48:30.488Z,-2.20
2023-01-29T20:50:58.345Z,-2.20
2023-01-29T20:53:26.193Z,-2.20
2023-01-29T20:55:54.273Z,-2.10
2023-01-29T20:58:22.424Z,-2.10
2023-01-29T21:00:50.501Z,-2.10
2023-01-29T21:03:19.880Z,-2.00
2023-01-29T21:05:47.692Z,-2.00
2023-01-29T21:08:15.523Z,-2.00
2023-01-29T21:10:45.024Z,-2.00
2023-01-29T21:13:13.040Z,-1.90
2023-01-29T21:15:44.223Z,-2.00
2023-01-29T21:18:12.179Z,-2.00
2023-01-29T21:20:41.331Z,-2.00
2023-01-29T21:23:09.141Z,-2.00
2023-01-29T21:25:38.560Z,-2.00
2023-01-29T21:28:06.683Z,-2.00
2023-01-29T21:30:35.093Z,-2.00
2023-01-29T21:33:03.071Z,-2.00
2023-01-29T21:35:30.951Z,-2.00
2023-01-29T21:38:00.162Z,-1.90
2023-01-29T21:40:30.448Z,-1.90
2023-01-29T21:43:12.386Z,-1.90
2023-01-29T21:45:41.095Z,-1.90
2023-01-29T21:48:09.422Z,-1.90
2023-01-29T21:50:37.416Z,-1.90
2023-01-29T21:53:06.747Z,-1.90
2023-01-29T21:55:34.882Z,-1.90
2023-01-29T21:58:02.752Z,-1.80
2023-01-29T22:00:30.651Z,-1.80
2023-01-29T22:02:58.547Z,-1.80
2023-01-29T22:05:26.608Z,-1.80
2023-01-29T22:07:54.429Z,-1.80
2023-01-29T22:10:23.776Z,-1.90
2023-01-29T22:12:51.620Z,-1.90
2023-01-29T22:15:21.082Z,-1.90
2023-01-29T22:17:49.813Z,-1.90
2023-01-29T22:20:18.047Z,-1.90
2023-01-29T22:22:46.087Z,-1.90
2023-01-29T22:25:13.924Z,-1.90
2023-01-29T22:27:43.073Z,-1.80
2023-01-29T22:30:12.523Z,-1.80
2023-01-29T22:32:40.398Z,-1.80
2023-01-29T22:35:09.344Z,-1.70
2023-01-29T22:37:37.166Z,-1.70
2023-01-29T22:40:05.559Z,-1.70
2023-01-29T22:42:33.420Z,-1.70
2023-01-29T22:45:02.612Z,-1.70
2023-01-29T22:47:32.721Z,-1.70
2023-01-29T22:50:00.579Z,-1.70
2023-01-29T22:52:38.182Z,-1.70
2023-01-29T22:55:08.763Z,-1.70
2023-01-29T22:57:37.183Z,-1.70
2023-01-29T23:00:11.350Z,-1.70
2023-01-29T23:02:39.159Z,-1.60
2023-01-29T23:05:07.941Z,-1.60
2023-01-29T23:07:35.774Z,-1.60
2023-01-29T23:10:03.604Z,-1.60
2023-01-29T23:12:31.632Z,-1.50
2023-01-29T23:15:01.624Z,-1.50
2023-01-29T23:17:30.996Z,-1.50
2023-01-29T23:19:58.835Z,-1.50
2023-01-29T23:22:26.694Z,-1.50
2023-01-29T23:24:54.574Z,-1.50
2023-01-29T23:27:21.417Z,-1.50
2023-01-29T23:29:49.809Z,-1.50
2023-01-29T23:32:19.815Z,-1.50
2023-01-29T23:34:49.047Z,-1.50
2023-01-29T23:37:16.976Z,-1.50
2023-01-29T23:39:44.817Z,-1.50
2023-01-29T23:42:12.929Z,-1.40
2023-01-29T23:44:41.132Z,-1.40
2023-01-29T23:47:09.337Z,-1.40
2023-01-29T23:49:37.516Z,-1.40
2023-01-29T23:52:06.937Z,-1.30
2023-01-29T23:54:34.743Z,-1.30
2023-01-29T23:57:02.646Z,-1.30
2023-01-29T23:59:30.558Z,-1.30
